This is the latest recevied weather packets stored in our database for station/object KD9IXX-13. If no packets are shown the sender has not sent any weather packets the latest 10 day(s).
| Time | Temp. | Humidity | Pressure | Rain* | Wind** | Luminosity | Snow |
|---|---|---|---|---|---|---|---|
| 1777771202 | 8.89° C | 56% | 1018.1 hPa | 0 mm | - | 0 W/m² | - |
| 1777770902 | 8.89° C | 56% | 1018.2 hPa | 0 mm | - | 0 W/m² | - |
| 1777770602 | 9.44° C | 55% | 1018.2 hPa | 0 mm | - | 0 W/m² | - |
| 1777770303 | 9.44° C | 53% | 1018.3 hPa | 0 mm | - | 0 W/m² | - |
| 1777770003 | 10° C | 52% | 1018.1 hPa | 0 mm | - | 0 W/m² | - |
| 1777769701 | 10° C | 51% | 1018.1 hPa | 0 mm | - | 1 W/m² | - |
| 1777769402 | 10.56° C | 50% | 1018 hPa | 0 mm | - | 2 W/m² | - |
| 1777769102 | 10.56° C | 50% | 1018.3 hPa | 0 mm | - | 4 W/m² | - |
| 1777768801 | 11.11° C | 49% | 1018.3 hPa | 0 mm | - | 6 W/m² | - |
| 1777768502 | 11.67° C | 47% | 1018.2 hPa | 0 mm | - | 9 W/m² | - |
| 1777768202 | 11.67° C | 45% | 1018.1 hPa | 0 mm | - | 12 W/m² | - |
| 1777767902 | 11.67° C | 45% | 1018.3 hPa | 0 mm | - | 18 W/m² | - |
| 1777767602 | 11.67° C | 47% | 1018.2 hPa | 0 mm | - | 22 W/m² | - |
| 1777767302 | 11.67° C | 45% | 1018.4 hPa | 0 mm | - | 26 W/m² | - |
| 1777767002 | 12.22° C | 43% | 1018.2 hPa | 0 mm | - | 30 W/m² | - |
| 1777766702 | 12.78° C | 42% | 1018.2 hPa | 0 mm | - | 35 W/m² | - |
| 1777766402 | 12.78° C | 42% | 1018.2 hPa | 0 mm | - | 46 W/m² | - |
| 1777766102 | 13.33° C | 41% | 1018.2 hPa | 0 mm | - | 50 W/m² | - |
| 1777765802 | 13.33° C | 42% | 1018.1 hPa | 0 mm | - | 52 W/m² | - |
| 1777765502 | 13.33° C | 41% | 1018.1 hPa | 0 mm | - | 60 W/m² | - |
| 1777765202 | 12.78° C | 42% | 1018.3 hPa | 0 mm | - | 70 W/m² | - |
| 1777764902 | 12.78° C | 43% | 1018.6 hPa | 0 mm | - | 75 W/m² | - |
| 1777764602 | 13.33° C | 41% | 1018.6 hPa | 0 mm | - | 82 W/m² | - |
| 1777764302 | 12.22° C | 43% | 1018.5 hPa | 0 mm | - | 105 W/m² | - |
| 1777764002 | 12.78° C | 43% | 1018.2 hPa | 0 mm | - | 85 W/m² | - |
* Rain latest hour (hover to see other rain measurements)
** Current wind speed in m/s (hover to see current wind gust speed)